createdAt,value
2019-03-21T00:01:38.671Z,9.89
2019-03-21T00:04:13.184Z,9.91
2019-03-21T00:06:44.201Z,9.90
2019-03-21T00:09:17.765Z,9.93
2019-03-21T00:12:09.556Z,9.93
2019-03-21T00:15:14.585Z,9.94
2019-03-21T00:17:50.632Z,9.93
2019-03-21T00:20:21.569Z,9.93
2019-03-21T00:22:52.514Z,9.95
2019-03-21T00:25:24.831Z,9.96
2019-03-21T00:27:55.821Z,9.96
2019-03-21T00:30:26.972Z,9.96
2019-03-21T00:32:58.066Z,9.94
2019-03-21T00:35:29.098Z,9.97
2019-03-21T00:38:00.098Z,9.98
2019-03-21T00:40:35.028Z,10.00
2019-03-21T00:43:09.477Z,10.00
2019-03-21T00:45:40.405Z,10.00
2019-03-21T00:48:14.055Z,9.99
2019-03-21T00:50:45.097Z,10.00
2019-03-21T00:53:16.044Z,10.00
2019-03-21T00:55:48.045Z,10.00
2019-03-21T00:58:18.980Z,10.02
2019-03-21T01:00:53.148Z,10.03
2019-03-21T01:03:24.140Z,10.03
2019-03-21T01:05:55.133Z,10.03
2019-03-21T01:08:25.988Z,10.01
2019-03-21T01:10:56.975Z,10.00
2019-03-21T01:13:31.426Z,9.99
2019-03-21T01:16:02.440Z,10.00
2019-03-21T01:18:33.495Z,9.99
2019-03-21T01:21:04.366Z,10.00
2019-03-21T01:23:35.411Z,10.02
2019-03-21T01:26:07.996Z,10.02
2019-03-21T01:28:39.257Z,10.02
2019-03-21T01:31:10.498Z,10.02
2019-03-21T01:33:42.003Z,10.04
2019-03-21T01:36:12.986Z,10.05
2019-03-21T01:38:44.119Z,10.06
2019-03-21T01:41:15.360Z,10.07
2019-03-21T01:43:46.412Z,10.07
2019-03-21T01:46:17.862Z,10.07
2019-03-21T01:48:48.969Z,10.05
2019-03-21T01:51:19.952Z,10.07
2019-03-21T01:53:50.984Z,10.09
2019-03-21T01:56:22.015Z,10.11
2019-03-21T01:58:53.368Z,10.31
2019-03-21T02:01:24.491Z,10.26
2019-03-21T02:03:55.456Z,10.21
2019-03-21T02:06:27.257Z,10.19
2019-03-21T02:08:58.470Z,10.18
2019-03-21T02:11:29.539Z,10.19
2019-03-21T02:14:00.561Z,10.19
2019-03-21T02:16:31.671Z,10.20
2019-03-21T02:19:02.729Z,10.21
2019-03-21T02:21:34.025Z,10.25
2019-03-21T02:24:05.881Z,10.50
2019-03-21T02:26:37.180Z,10.47
2019-03-21T02:29:08.341Z,10.44
2019-03-21T02:31:39.561Z,10.44
2019-03-21T02:34:11.035Z,10.44
2019-03-21T02:36:42.518Z,10.45
2019-03-21T02:39:13.877Z,10.45
2019-03-21T02:41:44.931Z,10.46
2019-03-21T02:44:15.998Z,10.45
2019-03-21T02:46:47.021Z,10.48
2019-03-21T02:49:18.027Z,10.47
2019-03-21T02:51:49.212Z,10.48
2019-03-21T02:54:20.447Z,10.50
2019-03-21T02:56:51.994Z,10.50
2019-03-21T02:59:25.488Z,10.50
2019-03-21T03:01:56.812Z,10.51
2019-03-21T03:04:27.981Z,10.52
2019-03-21T03:06:59.894Z,10.55
2019-03-21T03:09:30.993Z,10.56
2019-03-21T03:12:02.106Z,10.54
2019-03-21T03:14:32.974Z,10.61
2019-03-21T03:17:03.901Z,10.61
2019-03-21T03:19:34.912Z,10.59
2019-03-21T03:22:05.973Z,10.66
2019-03-21T03:24:38.458Z,10.67
2019-03-21T03:27:09.346Z,10.68
2019-03-21T03:29:40.323Z,10.70
2019-03-21T03:32:11.372Z,10.73
2019-03-21T03:34:42.335Z,10.74
2019-03-21T03:37:13.306Z,10.75
2019-03-21T03:39:44.168Z,10.75
2019-03-21T03:42:15.088Z,10.76
2019-03-21T03:44:45.974Z,10.78
2019-03-21T03:47:16.908Z,10.80
2019-03-21T03:49:47.783Z,10.81
2019-03-21T03:52:18.715Z,10.82
2019-03-21T03:54:49.669Z,10.83
2019-03-21T03:57:20.672Z,10.82
2019-03-21T03:59:51.680Z,10.83
2019-03-21T04:02:22.701Z,10.84
2019-03-21T04:04:53.622Z,10.84
2019-03-21T04:07:25.043Z,10.87
2019-03-21T04:09:56.015Z,10.87
2019-03-21T04:12:26.969Z,10.88
2019-03-21T04:14:57.995Z,10.88
2019-03-21T04:17:29.037Z,10.89
2019-03-21T04:19:59.893Z,10.92
2019-03-21T04:22:30.825Z,10.92
2019-03-21T04:25:01.959Z,10.93
2019-03-21T04:27:33.027Z,10.94
2019-03-21T04:30:04.081Z,10.94
2019-03-21T04:32:35.000Z,10.93
2019-03-21T04:35:06.600Z,10.93
2019-03-21T04:37:37.487Z,10.88
2019-03-21T04:40:09.877Z,10.85
2019-03-21T04:42:40.864Z,10.83
2019-03-21T04:45:15.994Z,10.79
2019-03-21T04:47:46.947Z,10.77
2019-03-21T04:50:21.651Z,10.75
2019-03-21T04:52:52.633Z,10.74
2019-03-21T04:55:23.572Z,10.74
2019-03-21T04:57:54.646Z,10.73
2019-03-21T05:00:28.665Z,10.71
2019-03-21T05:03:01.424Z,10.68
2019-03-21T05:05:32.323Z,10.63
2019-03-21T05:08:03.281Z,10.56
2019-03-21T05:10:34.256Z,10.40
2019-03-21T05:13:05.270Z,10.23
2019-03-21T05:15:38.794Z,10.09
2019-03-21T05:18:17.189Z,9.96
2019-03-21T05:20:48.191Z,9.86
2019-03-21T05:23:19.136Z,9.76
2019-03-21T05:25:50.081Z,9.69
2019-03-21T05:28:20.948Z,9.62
2019-03-21T05:30:56.606Z,9.55
2019-03-21T05:33:27.694Z,9.50
2019-03-21T05:35:58.622Z,9.45
2019-03-21T05:38:30.673Z,9.41
2019-03-21T05:41:01.719Z,9.44
2019-03-21T05:43:58.975Z,9.49
2019-03-21T05:46:30.204Z,9.56
2019-03-21T05:49:01.185Z,9.64
2019-03-21T05:52:00.108Z,9.68
2019-03-21T05:54:31.101Z,9.77
2019-03-21T05:57:02.157Z,9.81
2019-03-21T05:59:33.072Z,9.85
2019-03-21T06:02:04.201Z,9.89
2019-03-21T06:04:35.198Z,9.93
2019-03-21T06:07:43.544Z,9.94
2019-03-21T06:10:16.330Z,9.98
2019-03-21T06:12:47.867Z,9.99
2019-03-21T06:15:25.834Z,9.97
2019-03-21T06:18:34.452Z,9.92
2019-03-21T06:21:24.203Z,9.86
2019-03-21T06:25:08.426Z,9.77
2019-03-21T06:27:39.452Z,9.74
2019-03-21T06:30:12.267Z,9.73
2019-03-21T06:32:43.349Z,9.75
2019-03-21T06:35:24.350Z,9.78
2019-03-21T06:37:55.873Z,9.84
2019-03-21T06:40:27.176Z,9.96
2019-03-21T06:42:58.632Z,10.08
2019-03-21T06:45:30.076Z,10.22
2019-03-21T06:48:01.541Z,10.36
2019-03-21T06:50:33.065Z,10.44
2019-03-21T06:53:04.373Z,10.54
2019-03-21T06:55:35.889Z,10.62
2019-03-21T06:58:07.963Z,10.70
2019-03-21T07:00:39.319Z,10.79
2019-03-21T07:03:10.750Z,10.85
2019-03-21T07:05:41.929Z,10.95
2019-03-21T07:08:13.321Z,11.00
2019-03-21T07:10:44.408Z,11.05
2019-03-21T07:13:16.150Z,11.10
2019-03-21T07:15:47.494Z,11.17
2019-03-21T07:18:18.448Z,11.24
2019-03-21T07:20:49.506Z,11.30
2019-03-21T07:23:20.638Z,11.35
2019-03-21T07:25:51.786Z,11.41
2019-03-21T07:28:22.832Z,11.45
2019-03-21T07:30:53.926Z,11.51
2019-03-21T07:33:24.878Z,11.55
2019-03-21T07:35:55.916Z,11.61
2019-03-21T07:38:27.128Z,11.65
2019-03-21T07:40:58.167Z,11.70
2019-03-21T07:43:29.156Z,11.77
2019-03-21T07:46:02.615Z,11.84
2019-03-21T07:48:33.577Z,11.94
2019-03-21T07:51:06.890Z,12.02
2019-03-21T07:53:37.851Z,12.10
2019-03-21T07:56:08.933Z,12.13
2019-03-21T07:58:39.849Z,12.20
2019-03-21T08:01:10.935Z,12.26
2019-03-21T08:03:42.006Z,12.35
2019-03-21T08:06:13.202Z,12.41
2019-03-21T08:08:44.100Z,12.41
2019-03-21T08:11:15.032Z,12.41
2019-03-21T08:13:46.342Z,12.44
2019-03-21T08:16:20.155Z,12.48
2019-03-21T08:18:51.313Z,12.48
2019-03-21T08:21:22.247Z,12.52
2019-03-21T08:23:53.164Z,12.51
2019-03-21T08:26:24.156Z,12.54
2019-03-21T08:28:54.979Z,12.54
2019-03-21T08:31:25.909Z,12.49
2019-03-21T08:33:56.962Z,12.53
2019-03-21T08:36:28.047Z,12.55
2019-03-21T08:38:59.060Z,12.61
2019-03-21T08:41:30.158Z,12.65
2019-03-21T08:44:01.244Z,12.75
2019-03-21T08:46:32.189Z,12.82
2019-03-21T08:49:03.251Z,12.88
2019-03-21T08:51:34.301Z,12.94
2019-03-21T08:54:05.367Z,12.95
2019-03-21T08:56:36.451Z,12.91
2019-03-21T08:59:07.741Z,12.92
2019-03-21T09:01:38.962Z,12.90
2019-03-21T09:04:10.016Z,12.88
2019-03-21T09:06:41.097Z,12.85
2019-03-21T09:09:12.498Z,12.80
2019-03-21T09:11:43.954Z,12.78
2019-03-21T09:14:15.451Z,12.80
2019-03-21T09:16:46.634Z,12.76
2019-03-21T09:19:17.571Z,12.70
2019-03-21T09:21:48.482Z,12.73
2019-03-21T09:24:24.104Z,12.78
2019-03-21T09:26:55.170Z,12.79
2019-03-21T09:29:26.136Z,12.80
2019-03-21T09:31:57.179Z,12.84
2019-03-21T09:34:28.234Z,12.88
2019-03-21T09:36:59.292Z,12.94
2019-03-21T09:39:30.300Z,12.92
2019-03-21T09:42:01.598Z,12.90
2019-03-21T09:44:32.673Z,12.88
2019-03-21T09:47:03.779Z,12.84
2019-03-21T09:49:34.879Z,12.88
2019-03-21T09:52:05.962Z,12.91
2019-03-21T09:54:37.016Z,12.91
2019-03-21T09:57:08.064Z,12.93
2019-03-21T09:59:38.930Z,12.94
2019-03-21T10:02:09.945Z,12.93
2019-03-21T10:04:40.996Z,12.91
2019-03-21T10:07:11.939Z,12.88
2019-03-21T10:09:45.182Z,12.85
2019-03-21T10:12:16.871Z,12.88
2019-03-21T10:14:47.999Z,12.89
2019-03-21T10:17:19.079Z,12.88
2019-03-21T10:19:50.076Z,12.93
2019-03-21T10:22:21.063Z,12.99
2019-03-21T10:24:52.039Z,13.03
2019-03-21T10:27:23.043Z,13.07
2019-03-21T10:29:54.041Z,13.04
2019-03-21T10:32:25.052Z,13.04
2019-03-21T10:34:55.981Z,13.06
2019-03-21T10:37:26.912Z,13.09
2019-03-21T10:39:57.857Z,13.14
2019-03-21T10:42:28.884Z,13.21
2019-03-21T10:45:00.376Z,13.24
2019-03-21T10:47:31.495Z,13.30
2019-03-21T10:50:02.392Z,13.38
2019-03-21T10:52:33.477Z,13.39
2019-03-21T10:55:04.607Z,13.43
2019-03-21T10:57:35.586Z,13.52
2019-03-21T11:00:08.524Z,13.61
2019-03-21T11:02:39.574Z,13.68
2019-03-21T11:05:11.045Z,13.77
2019-03-21T11:07:42.075Z,13.82
2019-03-21T11:10:13.276Z,13.90
2019-03-21T11:12:44.475Z,13.99
2019-03-21T11:15:15.942Z,13.96
2019-03-21T11:17:47.047Z,13.94
2019-03-21T11:20:32.166Z,13.92
2019-03-21T11:23:03.396Z,13.91
2019-03-21T11:25:34.678Z,13.92
2019-03-21T11:28:06.915Z,13.94
2019-03-21T11:30:43.346Z,13.96
2019-03-21T11:33:14.399Z,14.00
2019-03-21T11:35:45.479Z,13.97
2019-03-21T11:38:16.624Z,13.89
2019-03-21T11:40:48.533Z,13.85
2019-03-21T11:43:20.543Z,13.87
2019-03-21T11:45:51.637Z,13.94
2019-03-21T11:48:22.636Z,14.14
2019-03-21T11:50:53.608Z,14.26
2019-03-21T11:53:24.576Z,14.29
2019-03-21T11:55:55.687Z,14.32
2019-03-21T11:58:26.772Z,14.38
2019-03-21T12:00:57.842Z,14.51
2019-03-21T12:03:29.033Z,14.58
2019-03-21T12:06:00.057Z,14.70
2019-03-21T12:08:32.347Z,14.73
2019-03-21T12:11:03.522Z,14.74
2019-03-21T12:13:34.383Z,14.74
2019-03-21T12:16:05.491Z,14.82
2019-03-21T12:18:36.589Z,14.90
2019-03-21T12:21:07.629Z,14.97
2019-03-21T12:23:38.599Z,15.03
2019-03-21T12:26:09.491Z,15.05
2019-03-21T12:28:40.520Z,15.01
2019-03-21T12:31:11.618Z,15.01
2019-03-21T12:33:42.801Z,14.89
2019-03-21T12:36:13.879Z,14.76
2019-03-21T12:38:44.906Z,14.67
2019-03-21T12:41:15.997Z,14.58
2019-03-21T12:43:47.162Z,14.58
2019-03-21T12:46:18.184Z,14.55
2019-03-21T12:48:52.269Z,14.58
2019-03-21T12:51:24.677Z,14.58
2019-03-21T12:53:55.770Z,14.58
2019-03-21T12:56:26.753Z,14.59
2019-03-21T12:59:00.428Z,14.63
2019-03-21T13:01:31.323Z,14.62
2019-03-21T13:04:02.380Z,14.58
2019-03-21T13:06:33.525Z,14.56
2019-03-21T13:09:06.337Z,14.52
2019-03-21T13:11:37.364Z,14.50
2019-03-21T13:14:08.484Z,14.46
2019-03-21T13:16:39.572Z,14.35
2019-03-21T13:19:10.600Z,14.30
2019-03-21T13:21:41.541Z,14.17
2019-03-21T13:24:12.524Z,14.13
2019-03-21T13:26:43.579Z,14.14
2019-03-21T13:29:14.583Z,14.12
2019-03-21T13:31:45.632Z,14.06
2019-03-21T13:34:16.563Z,13.91
2019-03-21T13:36:47.490Z,13.78
2019-03-21T13:39:18.419Z,13.73
2019-03-21T13:41:49.365Z,13.57
2019-03-21T13:44:20.333Z,13.47
2019-03-21T13:46:51.407Z,13.46
2019-03-21T13:49:22.627Z,13.41
2019-03-21T13:51:53.736Z,13.37
2019-03-21T13:54:24.699Z,13.33
2019-03-21T13:56:55.704Z,13.30
2019-03-21T13:59:26.678Z,13.31
2019-03-21T14:01:57.642Z,13.31
2019-03-21T14:04:28.560Z,13.25
2019-03-21T14:06:59.584Z,13.10
2019-03-21T14:09:30.584Z,13.02
2019-03-21T14:12:01.649Z,12.98
2019-03-21T14:14:32.685Z,12.92
2019-03-21T14:17:03.767Z,12.91
2019-03-21T14:19:34.879Z,12.89
2019-03-21T14:22:05.913Z,12.88
2019-03-21T14:24:36.958Z,12.86
2019-03-21T14:27:08.115Z,12.86
2019-03-21T14:29:39.266Z,12.85
2019-03-21T14:32:10.273Z,12.79
2019-03-21T14:34:41.223Z,12.76
2019-03-21T14:37:12.222Z,12.75
2019-03-21T14:39:43.264Z,12.70
2019-03-21T14:42:14.293Z,12.65
2019-03-21T14:44:45.230Z,12.60
2019-03-21T14:47:16.113Z,12.58
2019-03-21T14:49:47.196Z,12.58
2019-03-21T14:52:18.133Z,12.54
2019-03-21T14:54:49.195Z,12.50
2019-03-21T14:57:20.141Z,12.51
2019-03-21T14:59:51.229Z,12.57
2019-03-21T15:02:22.260Z,12.53
2019-03-21T15:04:53.237Z,12.49
2019-03-21T15:07:24.274Z,12.50
2019-03-21T15:09:55.354Z,12.52
2019-03-21T15:12:26.534Z,12.51
2019-03-21T15:14:57.705Z,12.47
2019-03-21T15:17:29.019Z,12.42
2019-03-21T15:20:00.181Z,12.39
2019-03-21T15:22:31.574Z,12.38
2019-03-21T15:25:02.676Z,12.35
2019-03-21T15:27:33.772Z,12.35
2019-03-21T15:30:05.957Z,12.37
2019-03-21T15:32:37.238Z,12.36
2019-03-21T15:35:10.611Z,12.37
2019-03-21T15:37:41.813Z,12.36
2019-03-21T15:40:13.606Z,12.34
2019-03-21T15:42:44.816Z,12.31
2019-03-21T15:45:22.644Z,12.27
2019-03-21T15:47:49.697Z,12.25
2019-03-21T15:50:32.702Z,12.20
2019-03-21T15:53:03.770Z,12.20
2019-03-21T15:55:35.103Z,12.17
2019-03-21T15:58:07.396Z,12.14
2019-03-21T16:00:42.590Z,12.13
2019-03-21T16:03:14.280Z,12.11
2019-03-21T16:05:45.362Z,12.08
2019-03-21T16:08:16.537Z,12.07
2019-03-21T16:10:47.387Z,12.04
2019-03-21T16:13:18.290Z,12.04
2019-03-21T16:15:49.218Z,12.04
2019-03-21T16:18:20.401Z,12.02
2019-03-21T16:20:51.403Z,12.00
2019-03-21T16:23:22.314Z,12.01
2019-03-21T16:25:53.390Z,11.99
2019-03-21T16:28:24.413Z,11.97
2019-03-21T16:30:55.272Z,11.94
2019-03-21T16:33:26.379Z,11.94
2019-03-21T16:35:57.402Z,11.95
2019-03-21T16:38:28.486Z,11.96
2019-03-21T16:40:59.489Z,11.97
2019-03-21T16:43:30.618Z,11.96
2019-03-21T16:46:01.647Z,11.94
2019-03-21T16:48:33.781Z,11.93
2019-03-21T16:51:05.195Z,11.93
2019-03-21T16:53:36.575Z,11.89
2019-03-21T16:56:08.064Z,11.89
2019-03-21T16:58:39.461Z,12.06
2019-03-21T17:01:11.083Z,12.01
2019-03-21T17:03:42.466Z,11.98
2019-03-21T17:06:13.630Z,11.95
2019-03-21T17:08:44.772Z,11.94
2019-03-21T17:11:15.796Z,11.91
2019-03-21T17:13:46.839Z,11.87
2019-03-21T17:16:17.886Z,11.84
2019-03-21T17:18:48.929Z,11.82
2019-03-21T17:21:20.062Z,11.80
2019-03-21T17:23:51.051Z,12.01
2019-03-21T17:26:22.122Z,11.94
2019-03-21T17:28:53.185Z,11.87
2019-03-21T17:31:24.196Z,11.82
2019-03-21T17:33:55.319Z,11.79
2019-03-21T17:36:26.461Z,11.78
2019-03-21T17:38:57.962Z,11.78
2019-03-21T17:41:29.212Z,11.78
2019-03-21T17:44:00.594Z,11.79
2019-03-21T17:46:32.166Z,11.78
2019-03-21T17:49:03.755Z,11.78
2019-03-21T17:51:35.102Z,11.75
2019-03-21T17:54:06.599Z,11.71
2019-03-21T17:59:15.822Z,11.78
2019-03-21T18:01:47.340Z,11.72
2019-03-21T18:04:18.618Z,11.70
2019-03-21T18:06:50.053Z,11.68
2019-03-21T18:09:21.837Z,11.68
2019-03-21T18:11:53.268Z,11.65
2019-03-21T18:14:24.732Z,11.63
2019-03-21T18:16:55.787Z,11.62
2019-03-21T18:19:26.816Z,11.61
2019-03-21T18:21:57.834Z,11.60
2019-03-21T18:24:28.937Z,11.58
2019-03-21T18:26:59.983Z,11.55
2019-03-21T18:29:31.050Z,11.53
2019-03-21T18:32:02.138Z,11.53
2019-03-21T18:34:33.302Z,11.53
2019-03-21T18:37:04.353Z,11.51
2019-03-21T18:39:35.407Z,11.48
2019-03-21T18:42:07.801Z,11.51
2019-03-21T18:44:38.747Z,11.48
2019-03-21T18:47:10.027Z,11.48
2019-03-21T18:49:44.045Z,11.47
2019-03-21T18:52:15.453Z,11.48
2019-03-21T18:54:46.775Z,11.47
2019-03-21T18:57:18.024Z,11.46
2019-03-21T18:59:49.299Z,11.45
2019-03-21T19:02:20.666Z,11.45
2019-03-21T19:04:52.415Z,11.45
2019-03-21T19:09:57.005Z,11.52
2019-03-21T19:12:28.385Z,11.44
2019-03-21T19:14:59.910Z,11.41
2019-03-21T19:17:32.032Z,11.40
2019-03-21T19:20:03.712Z,11.39
2019-03-21T19:22:35.015Z,11.36
2019-03-21T19:25:17.887Z,11.35
2019-03-21T19:27:40.406Z,11.32
2019-03-21T19:30:12.724Z,11.31
2019-03-21T19:32:44.081Z,11.31
2019-03-21T19:35:16.039Z,11.30
2019-03-21T19:37:47.510Z,11.26
2019-03-21T19:40:19.065Z,11.23
2019-03-21T19:42:50.477Z,11.22
2019-03-21T19:45:27.154Z,11.21
2019-03-21T19:47:58.887Z,11.21
2019-03-21T19:50:30.194Z,11.20
2019-03-21T19:53:01.524Z,11.18
2019-03-21T19:55:32.871Z,11.16
2019-03-21T19:58:04.744Z,11.15
2019-03-21T20:00:36.297Z,11.13
2019-03-21T20:03:08.121Z,11.12
2019-03-21T20:05:39.508Z,11.12
2019-03-21T20:08:10.903Z,11.12
2019-03-21T20:10:43.568Z,11.14
2019-03-21T20:13:15.495Z,11.13
2019-03-21T20:15:47.106Z,11.11
2019-03-21T20:18:18.317Z,11.09
2019-03-21T20:20:49.705Z,11.07
2019-03-21T20:23:21.288Z,11.07
2019-03-21T20:25:52.881Z,11.07
2019-03-21T20:28:26.040Z,11.06
2019-03-21T20:30:57.622Z,11.06
2019-03-21T20:33:29.020Z,11.06
2019-03-21T20:36:00.452Z,11.03
2019-03-21T20:38:31.949Z,11.06
2019-03-21T20:41:03.674Z,11.05
2019-03-21T20:43:35.023Z,11.05
2019-03-21T20:46:06.555Z,11.04
2019-03-21T20:48:34.994Z,11.02
2019-03-21T20:51:09.586Z,11.03
2019-03-21T20:53:40.960Z,11.01
2019-03-21T20:56:12.200Z,10.98
2019-03-21T20:58:43.517Z,11.00
2019-03-21T21:01:14.917Z,10.99
2019-03-21T21:03:46.189Z,10.97
2019-03-21T21:06:17.427Z,10.97
2019-03-21T21:11:22.123Z,10.95
2019-03-21T21:13:53.450Z,10.92
2019-03-21T21:16:24.734Z,10.89
2019-03-21T21:18:56.073Z,10.88
2019-03-21T21:21:27.471Z,10.84
2019-03-21T21:23:58.757Z,10.84
2019-03-21T21:26:30.023Z,10.86
2019-03-21T21:29:01.444Z,10.88
2019-03-21T21:31:33.289Z,10.89
2019-03-21T21:34:05.933Z,10.92
2019-03-21T21:36:37.308Z,10.90
2019-03-21T21:39:24.117Z,10.99
2019-03-21T21:41:55.568Z,10.98
2019-03-21T21:44:27.052Z,10.98
2019-03-21T21:46:58.410Z,10.96
2019-03-21T21:49:29.840Z,10.97
2019-03-21T21:52:01.298Z,10.96
2019-03-21T21:54:32.718Z,10.93
2019-03-21T21:57:04.115Z,10.92
2019-03-21T21:59:35.509Z,10.93
2019-03-21T22:02:08.105Z,10.93
2019-03-21T22:04:39.398Z,10.97
2019-03-21T22:07:11.132Z,10.97
2019-03-21T22:09:42.598Z,10.97
2019-03-21T22:12:14.078Z,10.97
2019-03-21T22:14:47.555Z,10.96
2019-03-21T22:17:18.879Z,10.95
2019-03-21T22:19:50.201Z,10.96
2019-03-21T22:22:21.941Z,10.98
2019-03-21T22:24:53.424Z,10.99
2019-03-21T22:27:24.742Z,10.99
2019-03-21T22:32:19.758Z,10.98
2019-03-21T22:34:50.793Z,10.99
2019-03-21T22:37:21.758Z,10.98
2019-03-21T22:39:52.609Z,10.97
2019-03-21T22:42:23.471Z,10.95
2019-03-21T22:44:54.345Z,10.94
2019-03-21T22:47:25.647Z,10.92
2019-03-21T22:49:56.592Z,10.90
2019-03-21T22:52:27.526Z,10.86
2019-03-21T22:54:58.472Z,10.83
2019-03-21T22:57:29.329Z,10.82
2019-03-21T23:00:00.446Z,10.80
2019-03-21T23:02:31.504Z,10.78
2019-03-21T23:05:02.449Z,10.78
2019-03-21T23:07:33.333Z,10.80
2019-03-21T23:10:04.671Z,10.81
2019-03-21T23:12:35.728Z,10.82
2019-03-21T23:15:08.358Z,10.81
2019-03-21T23:17:39.400Z,10.82
2019-03-21T23:20:11.191Z,10.84
2019-03-21T23:22:42.212Z,10.84
2019-03-21T23:25:16.569Z,10.84
2019-03-21T23:27:46.994Z,10.84
2019-03-21T23:30:18.178Z,10.83
2019-03-21T23:32:49.262Z,10.84
2019-03-21T23:35:20.304Z,10.85
2019-03-21T23:37:51.189Z,10.85
2019-03-21T23:40:22.246Z,10.85
2019-03-21T23:42:53.367Z,10.85
2019-03-21T23:45:24.497Z,10.84
2019-03-21T23:47:56.573Z,10.84
2019-03-21T23:50:27.614Z,10.84
2019-03-21T23:52:58.654Z,10.84
2019-03-21T23:55:29.569Z,10.82
2019-03-21T23:58:00.431Z,10.81
